Time;durP1;ratioP1;P1;durP2;ratioP2;P2;SDS_P1;SDS_P2;PMS_P1;PMS_P2;Temp;Humidity;BMP_temperature;BMP_pressure;BME280_temperature;BME280_humidity;BME280_pressure;Samples;Min_cycle;Max_cycle;Signal;HPM_P1;HPM_P2
2022/12/27 00:00:43;;;;;;;82.13;35.97;;;;;;;10.69;100.00;101689.19;5083354;27;20915;-72
2022/12/27 00:03:11;;;;;;;72.13;32.53;;;;;;;10.72;100.00;101683.19;5067791;28;20045;-73
2022/12/27 00:05:44;;;;;;;72.05;34.05;;;;;;;10.72;100.00;101685.09;5063251;28;20411;-72
2022/12/27 00:08:12;;;;;;;74.88;34.88;;;;;;;10.82;100.00;101690.72;5048835;28;20059;-73
2022/12/27 00:10:40;;;;;;;70.30;33.88;;;;;;;10.91;100.00;101680.16;5055806;28;20052;-72
2022/12/27 00:13:08;;;;;;;68.40;33.53;;;;;;;10.89;100.00;101677.66;5067213;28;20063;-73
2022/12/27 00:15:36;;;;;;;68.80;34.20;;;;;;;10.65;100.00;101679.00;5068169;28;20048;-73
2022/12/27 00:18:03;;;;;;;77.55;35.25;;;;;;;10.77;100.00;101676.97;5068339;28;20044;-73
2022/12/27 00:20:31;;;;;;;79.55;33.72;;;;;;;10.53;100.00;101679.09;5068163;28;20049;-73
2022/12/27 00:23:00;;;;;;;72.05;33.03;;;;;;;10.47;100.00;101681.75;5067786;28;20406;-73
2022/12/27 00:25:28;;;;;;;78.35;37.03;;;;;;;10.57;100.00;101678.31;5068024;28;20041;-73
2022/12/27 00:27:56;;;;;;;77.90;35.67;;;;;;;10.34;100.00;101682.09;5068105;28;20071;-73
2022/12/27 00:30:23;;;;;;;70.78;34.45;;;;;;;10.56;100.00;101675.88;5067810;28;20060;-73
2022/12/27 00:32:51;;;;;;;75.28;35.40;;;;;;;10.60;100.00;101677.84;5057986;28;20044;-73
2022/12/27 00:35:19;;;;;;;75.22;35.33;;;;;;;10.70;100.00;101677.16;5067897;28;20041;-73
2022/12/27 00:37:47;;;;;;;82.20;37.63;;;;;;;10.32;100.00;101682.34;5068104;28;20048;-73
2022/12/27 00:40:14;;;;;;;74.22;35.97;;;;;;;10.46;100.00;101680.09;5068006;28;20048;-73
2022/12/27 00:42:42;;;;;;;71.25;34.45;;;;;;;10.47;100.00;101681.75;5067583;28;20032;-72
2022/12/27 00:45:10;;;;;;;71.97;34.58;;;;;;;10.33;100.00;101696.84;5067728;28;20060;-72
2022/12/27 00:47:39;;;;;;;77.25;34.72;;;;;;;10.68;100.00;101683.94;5068613;28;20471;-72
2022/12/27 00:50:07;;;;;;;80.20;36.05;;;;;;;10.70;100.00;101670.84;5067575;28;20060;-72
2022/12/27 00:52:34;;;;;;;72.22;34.25;;;;;;;10.73;100.00;101678.53;5067227;28;20041;-72
2022/12/27 00:55:03;;;;;;;83.18;37.63;;;;;;;10.72;100.00;101668.69;5067725;28;20048;-72
2022/12/27 00:57:30;;;;;;;68.75;33.58;;;;;;;10.78;100.00;101664.94;5067156;28;20499;-72
2022/12/27 00:59:58;;;;;;;69.88;33.67;;;;;;;10.74;100.00;101666.50;5063105;28;20045;-72
2022/12/27 01:02:32;;;;;;;76.38;34.75;;;;;;;10.78;100.00;101680.50;5053594;28;20056;-73
2022/12/27 01:05:00;;;;;;;71.43;33.63;;;;;;;10.73;100.00;101660.22;5054562;28;20515;-72
2022/12/27 01:07:28;;;;;;;76.22;33.53;;;;;;;10.72;100.00;101669.50;5054075;28;20380;-73
2022/12/27 01:09:56;;;;;;;80.25;34.08;;;;;;;10.54;100.00;101656.13;5053849;28;20041;-72
2022/12/27 01:12:24;;;;;;;74.90;35.72;;;;;;;10.59;100.00;101661.66;5053241;28;20057;-72
2022/12/27 01:14:54;;;;;;;77.13;35.97;;;;;;;10.71;100.00;101662.38;5054311;28;20060;-72
2022/12/27 01:17:22;;;;;;;73.15;36.72;;;;;;;10.83;100.00;101655.94;5054234;28;20060;-73
2022/12/27 01:19:49;;;;;;;73.53;35.35;;;;;;;10.61;100.00;101665.81;5052996;28;20052;-72
2022/12/27 01:22:17;;;;;;;82.38;36.75;;;;;;;10.59;100.00;101658.94;5053612;28;20075;-72
2022/12/27 01:24:45;;;;;;;74.32;36.30;;;;;;;10.57;100.00;101663.84;5052912;28;20041;-72
2022/12/27 01:27:13;;;;;;;74.03;36.03;;;;;;;9.90;100.00;101659.00;5053631;28;20044;-72
2022/12/27 01:29:40;;;;;;;77.78;36.10;;;;;;;9.95;100.00;101659.09;5053594;28;20399;-72
2022/12/27 01:32:08;;;;;;;85.85;37.58;;;;;;;10.07;100.00;101655.44;5053268;28;20056;-72
2022/12/27 01:34:36;;;;;;;84.07;38.05;;;;;;;10.16;100.00;101662.13;5053726;28;20055;-72
2022/12/27 01:37:05;;;;;;;77.95;36.15;;;;;;;10.20;100.00;101663.28;5053565;28;20510;-72
2022/12/27 01:39:33;;;;;;;85.47;38.05;;;;;;;10.36;100.00;101668.97;5053582;28;20056;-72
2022/12/27 01:45:13;;;;;;;78.20;37.38;;;;;;;10.52;100.00;101667.34;5053555;28;20056;-73
2022/12/27 01:47:48;;;;;;;79.32;36.97;;;;;;;10.47;100.00;101667.25;5053339;28;20049;-73
2022/12/27 01:50:36;;;;;;;81.90;36.70;;;;;;;10.64;100.00;101664.47;5053221;28;20048;-73
2022/12/27 01:53:20;;;;;;;75.57;36.88;;;;;;;10.61;100.00;101665.00;5049524;28;20063;-72
2022/12/27 01:56:02;;;;;;;81.78;38.38;;;;;;;10.57;100.00;101664.66;5053466;28;20048;-72
2022/12/27 01:58:42;;;;;;;84.03;35.50;;;;;;;10.56;100.00;101651.22;5052889;28;20041;-72
2022/12/27 02:01:16;;;;;;;76.40;37.10;;;;;;;10.32;100.00;101656.91;5053398;28;20045;-72
2022/12/27 02:03:48;;;;;;;75.18;36.10;;;;;;;10.37;100.00;101648.75;5053251;28;20415;-73
2022/12/27 02:06:19;;;;;;;77.70;37.15;;;;;;;10.39;100.00;101660.28;5052604;28;20056;-72
2022/12/27 02:09:11;;;;;;;79.75;36.55;;;;;;;10.31;100.00;101667.00;5052800;28;20040;-72
2022/12/27 02:11:50;;;;;;;78.35;36.95;;;;;;;10.31;100.00;101661.53;5051217;28;20052;-72
2022/12/27 02:14:28;;;;;;;79.15;36.25;;;;;;;10.39;100.00;101651.22;5053489;28;20048;-72
2022/12/27 02:16:58;;;;;;;85.28;36.45;;;;;;;10.37;100.00;101651.50;5053525;28;20045;-73
2022/12/27 02:19:41;;;;;;;79.00;36.25;;;;;;;10.42;100.00;101646.06;5052797;28;20052;-72
2022/12/27 02:22:27;;;;;;;72.90;37.13;;;;;;;10.30;100.00;101650.81;5041509;28;20515;-73
2022/12/27 02:25:14;;;;;;;69.97;35.00;;;;;;;10.49;100.00;101651.41;5051966;28;20478;-73
2022/12/27 02:27:45;;;;;;;79.00;38.08;;;;;;;10.58;100.00;101651.78;5052297;28;20045;-72
2022/12/27 02:30:14;;;;;;;80.15;36.88;;;;;;;10.64;100.00;101652.72;5052423;28;20053;-73
2022/12/27 02:32:57;;;;;;;75.72;35.72;;;;;;;10.60;100.00;101652.34;5052007;28;20048;-72
2022/12/27 02:35:47;;;;;;;83.05;36.55;;;;;;;10.58;100.00;101651.78;5052703;28;20052;-73
2022/12/27 02:38:23;;;;;;;64.93;34.10;;;;;;;10.55;100.00;101655.88;5052240;28;20064;-72
2022/12/27 02:58:49;;;;;;;79.22;34.33;;;;;;;10.42;100.00;101648.81;5052034;28;20507;-72
2022/12/27 03:04:34;;;;;;;71.22;36.42;;;;;;;10.43;100.00;101633.25;5051948;28;20060;-72
2022/12/27 03:07:20;;;;;;;75.72;34.15;;;;;;;10.49;100.00;101643.19;5052569;28;20048;-72
2022/12/27 03:16:11;;;;;;;65.90;32.13;;;;;;;10.63;100.00;101657.34;5051986;28;20049;-72
2022/12/27 03:18:47;;;;;;;67.95;34.05;;;;;;;10.28;100.00;101656.56;5051662;28;20045;-72
2022/12/27 03:27:35;;;;;;;68.93;35.40;;;;;;;10.52;100.00;101650.06;5051842;28;20049;-73
2022/12/27 03:33:13;;;;;;;71.50;32.10;;;;;;;10.45;100.00;101651.09;5052964;28;19925;-73
2022/12/27 03:39:00;;;;;;;69.60;35.22;;;;;;;10.56;100.00;101651.22;5051274;28;20060;-73
2022/12/27 03:44:24;;;;;;;67.18;33.38;;;;;;;10.48;100.00;101645.09;5051701;28;20053;-72
2022/12/27 03:46:58;;;;;;;69.00;34.42;;;;;;;10.45;100.00;101648.34;5051122;28;20491;-72
2022/12/27 03:49:37;;;;;;;68.60;33.10;;;;;;;10.51;100.00;101653.91;5051156;28;20041;-72
2022/12/27 03:52:26;;;;;;;69.35;32.45;;;;;;;10.47;100.00;101659.88;5051166;28;20056;-74
2022/12/27 03:54:55;;;;;;;70.22;34.00;;;;;;;10.45;100.00;101656.56;5051432;28;20060;-72
2022/12/27 03:57:25;;;;;;;72.10;33.58;;;;;;;10.54;100.00;101656.13;5051197;28;20484;-72
2022/12/27 03:59:54;;;;;;;69.68;35.10;;;;;;;10.61;100.00;101654.84;5050867;28;20041;-72
2022/12/27 04:02:22;;;;;;;66.65;33.83;;;;;;;10.56;100.00;101662.19;5051198;28;20057;-72
2022/12/27 04:04:50;;;;;;;72.00;35.35;;;;;;;10.53;100.00;101657.19;5051301;28;20403;-72
2022/12/27 04:07:18;;;;;;;73.45;34.95;;;;;;;10.51;100.00;101657.44;5082951;28;20381;-72
2022/12/27 04:34:46;;;;;;;63.30;31.98;;;;;;;10.41;100.00;101660.03;5050937;28;20049;-73
2022/12/27 04:37:18;;;;;;;65.10;32.58;;;;;;;10.32;100.00;101649.50;5054728;28;20048;-73
2022/12/27 04:56:34;;;;;;;61.08;30.00;;;;;;;10.34;100.00;101660.19;5041581;28;20060;-73
2022/12/27 05:02:03;;;;;;;60.58;30.30;;;;;;;10.30;100.00;101656.31;5042805;28;20044;-73
2022/12/27 05:04:35;;;;;;;61.10;29.95;;;;;;;10.33;100.00;101648.41;5041819;28;20554;-73
2022/12/27 05:15:26;;;;;;;62.47;28.40;;;;;;;10.28;100.00;101655.72;5054244;28;20510;-73
2022/12/27 05:17:55;;;;;;;54.58;26.23;;;;;;;10.31;100.00;101655.25;5052404;28;20040;-73
2022/12/27 05:20:23;;;;;;;57.13;27.25;;;;;;;10.18;100.00;101659.97;5053023;28;20053;-73
2022/12/27 05:25:42;;;;;;;60.85;29.85;;;;;;;10.15;100.00;101663.22;5053993;28;20041;-73
2022/12/27 05:28:12;;;;;;;66.47;29.05;;;;;;;10.15;100.00;101663.22;5053270;28;20053;-73
2022/12/27 05:30:41;;;;;;;61.88;27.65;;;;;;;10.18;100.00;101653.69;5053741;28;20049;-73
2022/12/27 05:33:09;;;;;;;62.55;29.67;;;;;;;10.16;100.00;101662.13;5053476;28;20407;-73
2022/12/27 05:35:38;;;;;;;65.15;29.08;;;;;;;10.08;100.00;101663.38;5053640;28;20060;-73
2022/12/27 05:38:06;;;;;;;66.65;28.98;;;;;;;9.91;100.00;101663.41;5053601;28;20049;-73
2022/12/27 05:40:34;;;;;;;60.40;27.95;;;;;;;9.87;100.00;101656.75;5052787;28;20522;-73
2022/12/27 05:43:03;;;;;;;55.97;27.77;;;;;;;9.71;100.00;101669.34;5053417;28;20037;-73
2022/12/27 05:45:31;;;;;;;56.72;27.35;;;;;;;9.60;100.00;101657.41;5053547;28;20383;-73
2022/12/27 05:47:59;;;;;;;62.50;30.27;;;;;;;9.61;100.00;101663.69;5052958;28;20519;-73
2022/12/27 05:50:27;;;;;;;72.40;30.25;;;;;;;9.53;100.00;101664.91;5052820;28;20488;-73
2022/12/27 05:53:10;;;;;;;62.17;29.10;;;;;;;9.50;100.00;101659.97;5052882;28;20065;-72
2022/12/27 05:55:38;;;;;;;57.78;27.67;;;;;;;9.45;100.00;101665.34;5052997;28;20064;-73
2022/12/27 05:58:06;;;;;;;57.95;28.35;;;;;;;9.37;100.00;101672.03;5053038;28;20049;-73
2022/12/27 06:00:34;;;;;;;57.55;26.52;;;;;;;9.27;100.00;101675.41;5052542;28;20056;-73
2022/12/27 06:03:02;;;;;;;56.90;27.63;;;;;;;9.18;100.00;101680.41;5053003;28;20045;-73
2022/12/27 06:05:30;;;;;;;53.50;26.77;;;;;;;9.12;100.00;101668.56;5053038;28;20076;-73
2022/12/27 06:07:58;;;;;;;54.40;28.38;;;;;;;8.99;100.00;101679.75;5052877;28;20053;-73
2022/12/27 06:10:26;;;;;;;47.42;25.65;;;;;;;8.94;100.00;101687.88;5051477;28;20496;-72
2022/12/27 06:12:54;;;;;;;55.10;27.10;;;;;;;9.00;100.00;101692.38;5052269;28;20056;-73
2022/12/27 06:15:22;;;;;;;46.30;22.95;;;;;;;9.02;100.00;101687.47;5052903;28;20416;-73
2022/12/27 06:17:49;;;;;;;41.17;20.23;;;;;;;8.95;100.00;101694.97;5051958;28;20064;-72
2022/12/27 06:20:18;;;;;;;35.72;18.63;;;;;;;8.91;100.00;101691.91;5052895;28;20044;-72
2022/12/27 06:22:46;;;;;;;31.10;16.33;;;;;;;8.66;100.00;101703.09;5053130;28;20044;-73
2022/12/27 06:25:14;;;;;;;32.15;16.73;;;;;;;8.64;100.00;101697.06;5051082;28;20056;-73
2022/12/27 06:27:42;;;;;;;32.80;15.70;;;;;;;8.64;100.00;101697.88;5051522;28;20059;-72
2022/12/27 06:30:11;;;;;;;33.47;15.75;;;;;;;8.68;100.00;101706.41;5050117;28;20060;-73
2022/12/27 06:32:38;;;;;;;29.67;13.93;;;;;;;8.55;100.00;101697.41;5052198;28;20061;-72
2022/12/27 06:35:07;;;;;;;28.13;15.15;;;;;;;8.59;100.00;101712.25;5052558;28;20045;-73
2022/12/27 06:37:34;;;;;;;25.85;13.75;;;;;;;8.48;100.00;101704.88;5051170;28;20041;-72
2022/12/27 06:40:03;;;;;;;25.25;13.65;;;;;;;8.69;100.00;101711.63;5049327;28;20045;-73
2022/12/27 06:42:30;;;;;;;27.63;14.23;;;;;;;8.58;100.00;101723.38;5051627;28;20048;-73
2022/12/27 06:44:58;;;;;;;24.83;13.00;;;;;;;8.64;100.00;101718.91;5050812;28;20767;-73
2022/12/27 06:47:26;;;;;;;27.60;13.65;;;;;;;8.76;100.00;101724.31;5050903;28;20491;-73
2022/12/27 06:49:54;;;;;;;25.92;14.15;;;;;;;8.51;100.00;101723.47;5051293;28;20056;-73
2022/12/27 06:52:22;;;;;;;29.17;13.73;;;;;;;8.59;100.00;101725.06;5050804;28;20048;-73
2022/12/27 06:54:50;;;;;;;30.27;15.75;;;;;;;8.75;100.00;101734.41;5051402;28;20395;-71
2022/12/27 06:57:18;;;;;;;28.35;14.75;;;;;;;8.70;100.00;101731.59;5050907;28;20045;-71
2022/12/27 06:59:46;;;;;;;30.50;15.30;;;;;;;8.76;100.00;101740.69;5051721;28;20316;-73
2022/12/27 07:02:20;;;;;;;28.05;14.32;;;;;;;8.84;100.00;101743.06;5051530;28;20403;-73
2022/12/27 07:04:48;;;;;;;25.27;13.82;;;;;;;8.74;100.00;101749.13;5051315;28;20044;-74
2022/12/27 07:07:16;;;;;;;29.67;15.10;;;;;;;8.82;100.00;101747.94;5051035;28;20045;-76
2022/12/27 07:09:44;;;;;;;33.20;15.48;;;;;;;8.91;100.00;101753.84;5047743;28;20045;-75
2022/12/27 07:12:12;;;;;;;29.85;14.75;;;;;;;9.09;100.00;101748.25;5051234;28;20056;-75
2022/12/27 07:14:40;;;;;;;28.88;14.38;;;;;;;8.97;100.00;101763.81;5051327;28;20049;-74
2022/12/27 07:17:08;;;;;;;28.25;14.95;;;;;;;8.99;100.00;101754.31;5051211;28;20415;-75
2022/12/27 07:19:36;;;;;;;32.38;16.67;;;;;;;9.04;100.00;101760.97;5051205;28;20048;-74
2022/12/27 07:22:04;;;;;;;30.85;14.45;;;;;;;9.15;100.00;101773.78;5052019;28;20483;-74
2022/12/27 07:24:32;;;;;;;27.65;14.95;;;;;;;9.29;100.00;101766.09;5051136;28;20414;-75
2022/12/27 07:27:01;;;;;;;31.95;15.35;;;;;;;9.39;100.00;101779.97;5051260;28;20049;-75
2022/12/27 07:29:28;;;;;;;27.20;14.93;;;;;;;9.40;100.00;101786.28;5050620;28;20057;-73
2022/12/27 07:31:57;;;;;;;31.13;16.10;;;;;;;9.18;100.00;101783.38;5051604;28;20044;-74
2022/12/27 07:34:25;;;;;;;27.48;15.50;;;;;;;9.01;100.00;101786.84;5050994;28;20381;-73
2022/12/27 07:36:53;;;;;;;29.83;16.25;;;;;;;9.16;100.00;101788.25;5050686;28;20072;-74
2022/12/27 07:39:21;;;;;;;33.47;16.15;;;;;;;9.17;100.00;101784.44;5051006;28;20056;-74
2022/12/27 07:41:50;;;;;;;31.58;14.00;;;;;;;9.13;100.00;101784.94;5051634;28;20395;-74
2022/12/27 07:44:18;;;;;;;30.33;14.90;;;;;;;9.17;100.00;101785.28;5051435;28;20060;-74
2022/12/27 07:46:46;;;;;;;33.63;17.38;;;;;;;9.19;100.00;101794.03;5051278;28;20102;-74
2022/12/27 07:49:14;;;;;;;33.85;16.50;;;;;;;9.31;100.00;101790.47;5051273;28;20403;-74
2022/12/27 07:51:45;;;;;;;32.65;16.40;;;;;;;9.45;100.00;101801.94;5051330;28;20037;-74
2022/12/27 07:54:12;;;;;;;34.78;16.45;;;;;;;9.56;100.00;101798.34;5051484;28;20056;-75
2022/12/27 07:56:41;;;;;;;25.85;14.45;;;;;;;9.73;100.00;101795.66;5036241;28;20076;-74
2022/12/27 07:59:12;;;;;;;29.90;15.00;;;;;;;9.81;100.00;101805.38;5031116;28;20500;-74
2022/12/27 08:04:26;;;;;;;32.88;15.98;;;;;;;9.84;100.00;101804.91;5030370;28;20057;-74
2022/12/27 08:07:03;;;;;;;32.80;16.38;;;;;;;9.60;100.00;101805.00;5031504;28;20045;-74
2022/12/27 08:09:35;;;;;;;34.78;16.20;;;;;;;9.56;100.00;101806.56;5031194;28;20045;-74
2022/12/27 08:12:05;;;;;;;31.50;16.42;;;;;;;9.80;100.00;101803.72;5035244;28;20057;-75
2022/12/27 08:14:33;;;;;;;31.98;16.70;;;;;;;9.73;100.00;101817.53;5034995;28;20488;-74
2022/12/27 08:17:04;;;;;;;35.67;17.73;;;;;;;9.76;100.00;101816.22;5035156;28;20062;-74
2022/12/27 08:19:33;;;;;;;37.00;17.30;;;;;;;9.83;100.00;101808.72;5035444;28;20057;-74
2022/12/27 08:22:03;;;;;;;31.60;17.80;;;;;;;9.87;100.00;101823.53;5035336;28;20057;-74
2022/12/27 08:24:32;;;;;;;36.50;19.10;;;;;;;9.97;100.00;101814.69;5035582;28;20050;-74
2022/12/27 08:26:59;;;;;;;35.88;17.83;;;;;;;9.99;100.00;101822.66;5035262;28;20046;-74
2022/12/27 08:29:27;;;;;;;35.30;17.90;;;;;;;10.05;100.00;101816.22;5035072;28;20385;-75
2022/12/27 08:31:55;;;;;;;38.47;19.27;;;;;;;10.12;100.00;101827.81;5035387;28;20053;-74
2022/12/27 08:34:23;;;;;;;46.28;21.42;;;;;;;10.24;100.00;101824.19;5035180;28;20075;-74
2022/12/27 08:36:52;;;;;;;48.65;21.60;;;;;;;10.41;100.00;101835.97;5035113;28;20481;-74
2022/12/27 08:39:23;;;;;;;46.58;24.83;;;;;;;10.48;100.00;101824.91;5035268;28;20050;-74
2022/12/27 08:41:52;;;;;;;51.17;25.30;;;;;;;10.45;100.00;101828.97;5034741;28;20057;-74
2022/12/27 08:44:21;;;;;;;50.47;24.40;;;;;;;10.51;100.00;101834.53;5034993;28;20502;-75
2022/12/27 08:46:49;;;;;;;50.13;25.80;;;;;;;10.81;100.00;101847.06;5034684;28;20064;-75
2022/12/27 08:49:17;;;;;;;52.60;24.58;;;;;;;10.66;100.00;101845.72;5034307;28;20412;-75
2022/12/27 08:51:45;;;;;;;55.03;25.98;;;;;;;10.63;100.00;101848.97;5034715;28;20049;-75
2022/12/27 08:54:13;;;;;;;50.97;24.45;;;;;;;10.45;100.00;101839.91;5034747;28;20056;-74
2022/12/27 08:56:41;;;;;;;54.17;23.63;;;;;;;10.47;100.00;101837.75;5034500;28;20508;-75
2022/12/27 08:59:08;;;;;;;55.78;26.58;;;;;;;10.64;100.00;101849.81;5034229;28;20399;-74
2022/12/27 09:01:36;;;;;;;59.00;28.38;;;;;;;10.60;100.00;101849.44;5034743;28;20053;-74
2022/12/27 09:04:04;;;;;;;58.97;26.35;;;;;;;10.61;100.00;101857.41;5034290;28;20062;-75
2022/12/27 09:06:32;;;;;;;53.22;25.33;;;;;;;10.82;100.00;101854.19;5034704;28;20052;-74
2022/12/27 09:09:00;;;;;;;60.08;25.95;;;;;;;10.93;100.00;101858.75;5034001;28;20060;-74
2022/12/27 09:11:32;;;;;;;53.20;27.40;;;;;;;10.94;100.00;101846.69;5034391;28;20050;-74
2022/12/27 09:14:02;;;;;;;51.30;26.23;;;;;;;11.09;100.00;101864.44;5034145;28;20518;-74
2022/12/27 09:16:32;;;;;;;57.40;29.02;;;;;;;11.05;100.00;101861.38;5034524;28;20045;-74
2022/12/27 09:19:01;;;;;;;54.78;27.05;;;;;;;11.08;100.00;101863.63;5034301;28;20065;-74
2022/12/27 09:21:31;;;;;;;53.03;26.55;;;;;;;11.28;100.00;101874.03;5033724;28;20488;-75
2022/12/27 09:23:59;;;;;;;58.88;28.13;;;;;;;11.20;100.00;101866.22;5033016;28;20056;-75
2022/12/27 09:26:29;;;;;;;66.40;29.77;;;;;;;11.18;100.00;101871.16;5033939;28;20041;-75
2022/12/27 09:28:58;;;;;;;50.67;26.52;;;;;;;10.94;100.00;101876.81;5034047;28;20041;-75
2022/12/27 09:31:27;;;;;;;64.53;28.60;;;;;;;10.99;100.00;101876.06;5034141;28;20046;-75
2022/12/27 09:33:56;;;;;;;58.03;28.92;;;;;;;11.13;100.00;101871.06;5033763;28;20408;-75
2022/12/27 09:36:27;;;;;;;60.58;30.42;;;;;;;10.78;100.00;101870.28;5034013;28;20404;-75
2022/12/27 09:38:56;;;;;;;56.20;27.92;;;;;;;10.93;100.00;101886.13;5033878;28;20052;-75
2022/12/27 09:41:43;;;;;;;63.47;27.83;;;;;;;10.90;100.00;101878.41;5033966;28;20049;-75
2022/12/27 09:44:33;;;;;;;58.22;28.98;;;;;;;11.17;100.00;101874.97;5033547;28;20065;-75
2022/12/27 09:47:07;;;;;;;55.25;27.17;;;;;;;11.06;100.00;101879.47;5033548;28;20061;-74
2022/12/27 09:49:42;;;;;;;51.63;28.45;;;;;;;10.93;100.00;101886.13;5033685;28;20053;-74
2022/12/27 09:52:19;;;;;;;67.65;29.00;;;;;;;10.94;100.00;101876.00;5033351;28;20500;-74
2022/12/27 09:55:00;;;;;;;57.38;27.23;;;;;;;10.93;100.00;101879.81;5033308;28;20057;-74
2022/12/27 09:57:41;;;;;;;54.53;26.90;;;;;;;11.00;100.00;101870.34;5033937;28;20052;-74
2022/12/27 10:00:18;;;;;;;58.65;27.55;;;;;;;11.29;100.00;101872.94;5033186;28;20053;-74
2022/12/27 10:03:04;;;;;;;51.10;25.92;;;;;;;10.92;100.00;101868.03;5033342;28;20488;-73
2022/12/27 10:05:36;;;;;;;52.72;26.05;;;;;;;10.95;100.00;101863.97;5033259;28;20053;-74
2022/12/27 10:08:17;;;;;;;55.03;26.48;;;;;;;11.04;100.00;101858.91;5033501;28;20412;-74
2022/12/27 10:11:05;;;;;;;54.05;25.63;;;;;;;11.14;100.00;101854.38;5033433;28;20045;-74
2022/12/27 10:13:56;;;;;;;49.60;23.75;;;;;;;10.91;100.00;101858.16;5032925;28;20396;-74
2022/12/27 10:16:41;;;;;;;45.60;23.08;;;;;;;11.31;100.00;101856.25;5032996;28;20045;-74
2022/12/27 10:19:24;;;;;;;51.38;23.90;;;;;;;11.16;100.00;101856.88;5032990;28;20041;-74
2022/12/27 10:22:28;;;;;;;56.50;26.30;;;;;;;11.18;100.00;101838.25;5033086;28;20076;-74
2022/12/27 10:24:59;;;;;;;48.33;24.23;;;;;;;11.25;100.00;101849.06;5028735;28;20304;-74
2022/12/27 10:27:28;;;;;;;51.38;24.42;;;;;;;11.14;100.00;101845.31;5032838;28;20049;-74
2022/12/27 10:29:58;;;;;;;50.85;26.48;;;;;;;11.42;100.00;101833.38;5033177;28;20400;-74
2022/12/27 10:32:26;;;;;;;57.88;25.67;;;;;;;11.45;100.00;101842.16;5032331;28;20050;-74
2022/12/27 10:35:00;;;;;;;50.90;24.08;;;;;;;11.65;100.00;101847.09;5032575;28;20076;-74
2022/12/27 10:37:29;;;;;;;55.47;24.92;;;;;;;11.88;98.04;101843.22;5031431;28;20053;-75
2022/12/27 10:40:06;;;;;;;55.05;25.63;;;;;;;11.66;99.29;101843.25;5032738;28;20073;-74
2022/12/27 10:42:40;;;;;;;50.45;26.75;;;;;;;12.08;97.79;101836.34;5032559;28;20053;-74
2022/12/27 10:45:31;;;;;;;52.05;25.77;;;;;;;12.23;96.30;101849.38;5032864;28;20507;-74
2022/12/27 10:48:23;;;;;;;46.65;23.38;;;;;;;11.95;96.47;101843.88;5032583;28;20049;-74
2022/12/27 10:50:59;;;;;;;53.08;24.17;;;;;;;11.97;98.19;101838.09;5026717;28;20061;-74
2022/12/27 10:53:34;;;;;;;53.28;23.73;;;;;;;12.31;94.34;101837.91;5032335;28;20044;-74
2022/12/27 10:56:15;;;;;;;56.55;26.00;;;;;;;12.32;93.74;101828.59;5032413;28;20052;-75
2022/12/27 10:58:45;;;;;;;48.97;24.15;;;;;;;11.98;93.76;101834.28;5032151;28;20400;-74
2022/12/27 11:01:28;;;;;;;53.33;25.60;;;;;;;12.13;96.34;101835.56;5032095;28;20053;-75
2022/12/27 11:04:21;;;;;;;51.28;22.67;;;;;;;11.89;94.28;101841.31;5032024;28;20072;-75
2022/12/27 11:07:00;;;;;;;47.10;23.05;;;;;;;12.09;95.55;101846.22;5032084;28;20072;-74
2022/12/27 11:09:33;;;;;;;52.08;24.95;;;;;;;12.36;93.02;101826.16;5031813;28;20041;-74
2022/12/27 11:12:18;;;;;;;50.63;23.77;;;;;;;12.52;91.02;101835.34;5032452;28;20052;-74
2022/12/27 11:15:12;;;;;;;49.42;23.52;;;;;;;12.73;91.91;101822.59;5032413;28;20057;-74
2022/12/27 11:17:44;;;;;;;54.15;24.63;;;;;;;13.23;89.54;101830.59;5047311;28;20057;-74
2022/12/27 11:20:31;;;;;;;53.03;24.35;;;;;;;13.67;87.05;101834.09;5032181;28;20049;-75
2022/12/27 11:23:13;;;;;;;49.08;24.85;;;;;;;13.46;85.25;101830.41;5031864;28;20046;-74
2022/12/27 11:26:01;;;;;;;51.92;24.75;;;;;;;13.61;84.73;101830.50;5031685;28;20041;-74
2022/12/27 11:28:43;;;;;;;54.30;23.75;;;;;;;13.41;85.42;101831.22;5031687;28;20404;-75
2022/12/27 11:31:14;;;;;;;54.10;25.17;;;;;;;12.94;86.85;101830.97;5030541;28;20380;-75
2022/12/27 11:33:52;;;;;;;52.65;23.73;;;;;;;13.39;82.93;101830.66;5031672;28;20052;-75
2022/12/27 11:36:30;;;;;;;56.17;26.20;;;;;;;13.31;84.74;101830.06;5030631;28;20056;-74
2022/12/27 11:39:02;;;;;;;48.80;23.23;;;;;;;13.50;83.27;101828.81;5030133;28;20053;-75
2022/12/27 11:41:50;;;;;;;51.97;24.75;;;;;;;12.95;86.96;101818.06;5031706;28;20052;-75
2022/12/27 11:44:32;;;;;;;51.58;25.38;;;;;;;12.84;89.09;101820.75;5031890;28;20053;-75
2022/12/27 11:47:10;;;;;;;57.50;26.88;;;;;;;12.68;89.12;101819.81;5031938;28;20041;-75
2022/12/27 11:49:52;;;;;;;59.50;26.38;;;;;;;12.88;89.83;101818.28;5031361;28;20046;-75
2022/12/27 11:52:57;;;;;;;53.55;26.05;;;;;;;13.29;86.07;101813.03;5030162;28;20053;-75
2022/12/27 11:55:37;;;;;;;55.15;26.10;;;;;;;13.45;84.84;101815.84;5031300;28;20041;-75
2022/12/27 11:58:29;;;;;;;51.00;25.13;;;;;;;13.80;85.47;101813.50;5031600;28;20054;-75
2022/12/27 12:01:24;;;;;;;52.22;25.15;;;;;;;14.08;81.74;101803.09;5031630;28;20053;-75
2022/12/27 12:04:13;;;;;;;46.80;24.30;;;;;;;13.63;84.18;101800.78;5031600;28;20061;-75
2022/12/27 12:07:00;;;;;;;53.47;26.20;;;;;;;13.84;83.49;101800.84;5031337;28;20049;-75
2022/12/27 12:09:35;;;;;;;52.75;24.63;;;;;;;13.75;82.53;101802.47;5031123;28;20053;-75
2022/12/27 12:12:26;;;;;;;50.35;24.60;;;;;;;13.66;82.97;101797.50;5031158;28;20492;-75
2022/12/27 12:15:31;;;;;;;53.35;23.90;;;;;;;13.78;82.60;101797.25;5031046;28;20049;-75
2022/12/27 12:18:27;;;;;;;48.35;24.65;;;;;;;13.95;81.45;101798.94;5031226;28;20060;-75
2022/12/27 12:21:01;;;;;;;47.58;24.17;;;;;;;14.07;81.43;101798.66;5029501;28;20054;-75
2022/12/27 12:23:49;;;;;;;51.40;24.20;;;;;;;14.06;80.21;101797.00;5031109;28;20053;-75
2022/12/27 12:26:25;;;;;;;49.10;24.48;;;;;;;13.90;81.01;101793.41;5027370;28;20054;-75
2022/12/27 12:29:16;;;;;;;50.25;25.55;;;;;;;13.66;82.37;101788.44;5031008;28;20053;-75
2022/12/27 12:32:29;;;;;;;54.85;27.20;;;;;;;13.61;82.72;101786.50;5013671;28;20060;-74
2022/12/27 12:35:28;;;;;;;55.38;25.42;;;;;;;13.15;86.56;101782.44;5029861;28;20050;-74
2022/12/27 12:38:02;;;;;;;54.28;26.48;;;;;;;13.09;85.22;101775.28;5030930;28;20519;-74
2022/12/27 12:40:33;;;;;;;50.08;24.20;;;;;;;13.36;86.50;101768.78;5031689;28;20057;-74
2022/12/27 12:43:10;;;;;;;53.47;24.75;;;;;;;13.17;84.91;101777.53;5031169;28;20057;-74
2022/12/27 12:46:08;;;;;;;52.88;25.40;;;;;;;12.72;86.48;101766.00;5030901;28;20224;-74
2022/12/27 12:48:57;;;;;;;56.00;26.08;;;;;;;12.52;88.74;101772.22;5031015;28;20045;-74
2022/12/27 12:51:44;;;;;;;42.90;22.80;;;;;;;12.97;86.33;101766.41;5030987;28;20484;-74
2022/12/27 12:54:18;;;;;;;51.88;24.02;;;;;;;12.96;85.17;101765.56;5030978;28;20053;-74
2022/12/27 12:57:23;;;;;;;53.97;24.00;;;;;;;12.78;85.94;101753.13;5032509;28;20388;-74
2022/12/27 13:00:21;;;;;;;50.15;24.35;;;;;;;12.46;89.17;101763.09;5034090;28;20053;-75
2022/12/27 13:03:34;;;;;;;53.58;25.50;;;;;;;12.74;89.03;101754.75;5034664;28;20400;-74
2022/12/27 13:06:24;;;;;;;54.42;24.95;;;;;;;12.76;86.62;101760.81;5028470;28;20488;-74
2022/12/27 13:09:02;;;;;;;51.05;25.33;;;;;;;12.75;86.49;101759.97;5034345;28;20053;-74
2022/12/27 13:11:38;;;;;;;52.45;24.88;;;;;;;12.71;86.74;101753.38;5034049;28;20064;-74
2022/12/27 13:14:21;;;;;;;52.38;25.13;;;;;;;12.70;87.23;101754.47;5034380;28;20412;-75
2022/12/27 13:17:07;;;;;;;54.30;26.83;;;;;;;12.56;88.61;101742.31;5034326;28;20064;-74
2022/12/27 13:19:44;;;;;;;59.28;26.52;;;;;;;12.69;89.08;101741.81;5034702;28;20055;-74